This is the latest recevied weather packets stored in our database for station/object S50APT-10. If no packets are shown the sender has not sent any weather packets the latest 10 day(s).
| Time | Temp. | Humidity | Pressure | Rain* | Wind** | Luminosity | Snow |
|---|---|---|---|---|---|---|---|
| 1778272568 | 16.67° C | 47% | 1019.5 hPa | - | - | - | - |
| 1778271676 | 16.67° C | 47% | 1019.5 hPa | - | - | - | - |
| 1778270750 | 16.67° C | 46% | 1019.4 hPa | - | - | - | - |
| 1778269836 | 16.67° C | 48% | 1019.4 hPa | - | - | - | - |
| 1778268915 | 17.22° C | 46% | 1019.2 hPa | - | - | - | - |
| 1778268005 | 17.22° C | 46% | 1019.1 hPa | - | - | - | - |
| 1778267094 | 16.67° C | 47% | 1018.9 hPa | - | - | - | - |
| 1778266180 | 17.22° C | 47% | 1018.8 hPa | - | - | - | - |
| 1778265268 | 17.22° C | 46% | 1018.5 hPa | - | - | - | - |
| 1778264345 | 17.22° C | 46% | 1018.3 hPa | - | - | - | - |
| 1778263434 | 17.78° C | 45% | 1018.2 hPa | - | - | - | - |
| 1778262534 | 17.78° C | 44% | 1018 hPa | - | - | - | - |
| 1778261613 | 18.89° C | 42% | 1017.9 hPa | - | - | - | - |
| 1778260723 | 19.44° C | 41% | 1017.8 hPa | - | - | - | - |
| 1778259768 | 20.56° C | 38% | 1017.7 hPa | - | - | - | - |
| 1778258858 | 20.56° C | 39% | 1017.6 hPa | - | - | - | - |
| 1778257957 | 21.67° C | 38% | 1017.6 hPa | - | - | - | - |
| 1778257060 | 22.78° C | 35% | 1017.6 hPa | - | - | - | - |
| 1778256108 | 24.44° C | 32% | 1017.6 hPa | - | - | - | - |
| 1778255191 | 26.11° C | 30% | 1017.7 hPa | - | - | - | - |
| 1778254608 | 30.56° C | 23% | 1017.8 hPa | - | - | - | - |
| 1778254268 | 30.56° C | 23% | 1017.8 hPa | - | - | - | - |
| 1778253375 | 27.22° C | 27% | 1017.9 hPa | - | - | - | - |
| 1778252521 | 30° C | 23% | 1017.9 hPa | - | - | - | - |
| 1778252475 | 30° C | 23% | 1017.9 hPa | - | - | - | - |
* Rain since midnight (hover to see other rain measurements)
** Current wind speed in m/s (hover to see current wind gust speed)